Time;durP1;ratioP1;P1;durP2;ratioP2;P2;SDS_P1;SDS_P2;PMS_P1;PMS_P2;Temp;Humidity;BMP_temperature;BMP_pressure;BME280_temperature;BME280_humidity;BME280_pressure;Samples;Min_cycle;Max_cycle;Signal;HPM_P1;HPM_P2
2023/08/24 00:01:44;;;;;;;0.20;0.20;;;16.40;99.90;;;;;;5050229;28;20039;-77
2023/08/24 00:04:10;;;;;;;0.10;0.10;;;16.40;99.90;;;;;;5054421;28;20075;-77
2023/08/24 00:06:36;;;;;;;0.20;0.20;;;16.40;99.90;;;;;;5069658;28;20041;-77
2023/08/24 00:09:04;;;;;;;0.20;0.20;;;16.40;99.90;;;;;;5050575;28;20036;-77
2023/08/24 00:11:30;;;;;;;0.10;0.10;;;16.30;99.90;;;;;;5048681;28;20055;-77
2023/08/24 00:13:56;;;;;;;0.10;0.10;;;16.30;99.90;;;;;;5053278;28;20407;-77
2023/08/24 00:16:21;;;;;;;0.10;0.10;;;16.30;99.90;;;;;;5052152;28;20087;-77
2023/08/24 00:18:47;;;;;;;0.10;0.10;;;16.30;99.90;;;;;;5072453;28;20148;-77
2023/08/24 00:21:22;;;;;;;0.20;0.20;;;16.30;99.90;;;;;;5053062;28;20047;-77
2023/08/24 00:23:49;;;;;;;0.20;0.20;;;16.30;99.90;;;;;;5052064;28;20036;-77
2023/08/24 00:26:16;;;;;;;1.20;0.73;;;16.30;99.90;;;;;;5069654;28;20093;-77
2023/08/24 00:28:43;;;;;;;0.10;0.10;;;16.20;99.90;;;;;;5069666;28;20174;-77
2023/08/24 00:31:08;;;;;;;0.20;0.20;;;16.20;99.90;;;;;;5043180;28;20049;-77
2023/08/24 00:33:34;;;;;;;0.10;0.10;;;16.20;99.90;;;;;;5070723;28;20049;-77
2023/08/24 00:36:01;;;;;;;0.20;0.20;;;16.20;99.90;;;;;;5069911;28;20844;-77
2023/08/24 00:38:27;;;;;;;0.15;0.15;;;16.20;99.90;;;;;;5052444;28;20496;-77
2023/08/24 00:40:53;;;;;;;0.10;0.10;;;16.20;99.90;;;;;;5070901;28;20055;-77
2023/08/24 00:43:23;;;;;;;0.20;0.20;;;16.20;99.90;;;;;;5052782;28;20125;-77
2023/08/24 00:45:56;;;;;;;0.20;0.20;;;16.20;99.90;;;;;;5071493;28;20175;-77
2023/08/24 00:48:28;;;;;;;0.20;0.20;;;16.20;99.90;;;;;;5067345;28;20410;-77
2023/08/24 00:51:05;;;;;;;0.20;0.20;;;16.20;99.90;;;;;;5066499;28;20040;-77
2023/08/24 00:53:33;;;;;;;0.10;0.10;;;16.30;99.90;;;;;;5051269;28;20492;-77
2023/08/24 00:55:59;;;;;;;0.10;0.10;;;16.20;99.90;;;;;;5049831;28;20049;-77
2023/08/24 00:58:27;;;;;;;0.25;0.25;;;16.20;99.90;;;;;;5058668;28;20419;-77
2023/08/24 01:00:54;;;;;;;0.20;0.20;;;16.20;99.90;;;;;;5052177;28;20055;-77
2023/08/24 01:03:24;;;;;;;0.10;0.10;;;16.20;99.90;;;;;;5069281;28;20442;-77
2023/08/24 01:05:49;;;;;;;0.17;0.17;;;16.20;99.90;;;;;;5053965;28;20052;-77
2023/08/24 01:08:16;;;;;;;0.13;0.13;;;16.20;99.90;;;;;;5052904;28;20278;-77
2023/08/24 01:11:17;;;;;;;0.17;0.17;;;16.20;99.90;;;;;;5049736;28;20137;-77
2023/08/24 01:13:49;;;;;;;0.10;0.10;;;16.20;99.90;;;;;;5009844;28;20053;-77
2023/08/24 01:16:27;;;;;;;0.20;0.20;;;16.20;99.90;;;;;;5045705;28;20057;-77
2023/08/24 01:18:59;;;;;;;0.20;0.20;;;16.20;99.90;;;;;;5044824;28;20045;-77
2023/08/24 01:21:26;;;;;;;0.10;0.10;;;16.20;99.90;;;;;;5047148;28;20114;-77
2023/08/24 01:24:04;;;;;;;0.15;0.15;;;16.20;99.90;;;;;;5045574;28;20045;-77
2023/08/24 01:26:30;;;;;;;0.10;0.10;;;16.20;99.90;;;;;;5045460;28;20044;-77
2023/08/24 01:28:57;;;;;;;0.20;0.20;;;16.20;99.90;;;;;;5041463;28;20041;-77
2023/08/24 01:31:24;;;;;;;0.10;0.10;;;16.20;99.90;;;;;;5046300;28;20568;-77
2023/08/24 01:33:50;;;;;;;0.20;0.20;;;16.20;99.90;;;;;;5046446;28;20519;-77
2023/08/24 01:36:19;;;;;;;0.20;0.20;;;16.30;99.90;;;;;;5047202;28;20041;-77
2023/08/24 01:38:58;;;;;;;0.20;0.20;;;16.30;99.90;;;;;;5046397;28;20056;-77
2023/08/24 01:41:28;;;;;;;3.13;1.58;;;16.30;99.90;;;;;;5041256;28;20095;-77
2023/08/24 01:43:55;;;;;;;0.10;0.10;;;16.30;99.90;;;;;;5048595;28;20055;-77
2023/08/24 01:46:22;;;;;;;0.10;0.10;;;16.30;99.90;;;;;;5047796;28;20041;-77
2023/08/24 01:48:48;;;;;;;0.10;0.10;;;16.30;99.90;;;;;;5045529;28;20479;-77
2023/08/24 01:51:15;;;;;;;0.15;0.15;;;16.30;99.90;;;;;;5046610;28;20128;-77
2023/08/24 01:53:41;;;;;;;0.17;0.17;;;16.30;99.90;;;;;;5048551;28;20047;-77
2023/08/24 01:56:11;;;;;;;0.17;0.17;;;16.30;99.90;;;;;;5046355;28;20123;-77
2023/08/24 01:58:37;;;;;;;0.20;0.20;;;16.30;99.90;;;;;;5047344;28;20052;-77
2023/08/24 02:01:05;;;;;;;0.10;0.10;;;16.30;99.90;;;;;;5046599;28;20395;-77
2023/08/24 02:03:30;;;;;;;0.10;0.10;;;16.30;99.90;;;;;;5048154;28;20047;-77
2023/08/24 02:05:56;;;;;;;0.20;0.20;;;16.30;99.90;;;;;;5044917;28;20900;-77
2023/08/24 02:08:22;;;;;;;0.20;0.20;;;16.30;99.90;;;;;;5048091;28;20037;-77
2023/08/24 02:10:48;;;;;;;0.10;0.10;;;16.30;99.90;;;;;;5046113;28;20043;-76
2023/08/24 02:13:14;;;;;;;0.10;0.10;;;16.30;99.90;;;;;;5045666;28;20036;-77
2023/08/24 02:15:40;;;;;;;0.10;0.10;;;16.30;99.90;;;;;;5043923;28;20072;-77
2023/08/24 02:18:06;;;;;;;0.20;0.20;;;16.30;99.90;;;;;;5048327;28;20099;-77
2023/08/24 02:20:36;;;;;;;0.10;0.10;;;16.30;99.90;;;;;;5047535;28;20381;-77
2023/08/24 02:23:03;;;;;;;0.10;0.10;;;16.30;99.90;;;;;;5046994;28;20190;-77
2023/08/24 02:25:29;;;;;;;0.20;0.20;;;16.30;99.90;;;;;;5043268;28;20468;-77
2023/08/24 02:27:54;;;;;;;0.10;0.10;;;16.30;99.90;;;;;;5046763;28;20051;-77
2023/08/24 02:30:20;;;;;;;0.10;0.10;;;16.40;99.90;;;;;;5047101;28;20064;-77
2023/08/24 02:32:46;;;;;;;0.10;0.10;;;16.40;99.90;;;;;;5044207;28;20072;-77
2023/08/24 02:35:11;;;;;;;0.10;0.10;;;16.40;99.90;;;;;;5041425;28;20056;-77
2023/08/24 02:37:37;;;;;;;0.20;0.20;;;16.40;99.90;;;;;;5046732;28;20433;-77
2023/08/24 02:40:03;;;;;;;0.20;0.20;;;16.40;99.90;;;;;;5047577;28;20516;-77
2023/08/24 02:42:33;;;;;;;0.20;0.20;;;16.40;99.90;;;;;;5049086;28;20500;-77
2023/08/24 02:44:58;;;;;;;0.10;0.10;;;16.40;99.90;;;;;;5048050;28;20041;-77
2023/08/24 02:47:24;;;;;;;0.10;0.10;;;16.40;99.90;;;;;;5043653;28;20045;-77
2023/08/24 02:49:50;;;;;;;0.10;0.10;;;16.40;99.90;;;;;;5044294;28;20453;-78
2023/08/24 02:52:15;;;;;;;0.10;0.10;;;16.40;99.90;;;;;;5044168;28;20386;-77
2023/08/24 02:54:41;;;;;;;0.10;0.10;;;16.40;99.90;;;;;;5034876;28;20113;-77
2023/08/24 02:57:07;;;;;;;0.20;0.20;;;16.50;99.90;;;;;;5028641;28;20083;-77
2023/08/24 02:59:33;;;;;;;0.20;0.20;;;16.40;99.90;;;;;;5042823;28;20052;-78
2023/08/24 03:01:58;;;;;;;0.20;0.20;;;16.50;99.90;;;;;;5043317;28;20548;-77
2023/08/24 03:04:24;;;;;;;0.20;0.20;;;16.50;99.90;;;;;;5038721;28;20049;-77
2023/08/24 03:06:50;;;;;;;0.10;0.10;;;16.50;99.90;;;;;;5040294;28;20041;-77
2023/08/24 03:09:15;;;;;;;0.10;0.10;;;16.60;99.90;;;;;;5043236;28;20618;-77
2023/08/24 03:11:41;;;;;;;0.10;0.10;;;16.60;99.90;;;;;;5048577;28;20037;-77
2023/08/24 03:14:07;;;;;;;0.10;0.10;;;16.60;99.90;;;;;;5049579;28;20059;-77
2023/08/24 03:16:34;;;;;;;0.15;0.15;;;16.60;99.90;;;;;;5070019;28;20048;-77
2023/08/24 03:19:00;;;;;;;0.20;0.20;;;16.60;99.90;;;;;;5039862;28;20045;-78
2023/08/24 03:21:26;;;;;;;0.10;0.10;;;16.60;99.90;;;;;;5051332;28;20051;-78
2023/08/24 03:23:51;;;;;;;0.15;0.15;;;16.60;99.90;;;;;;5048624;28;20068;-78
2023/08/24 03:26:20;;;;;;;0.10;0.10;;;16.60;99.90;;;;;;5045787;28;20036;-77
2023/08/24 03:28:46;;;;;;;0.20;0.20;;;16.60;99.90;;;;;;5072963;28;20683;-77
2023/08/24 03:31:11;;;;;;;0.10;0.10;;;16.50;99.90;;;;;;5072015;28;20036;-78
2023/08/24 03:33:37;;;;;;;0.13;0.13;;;16.50;99.90;;;;;;5071794;28;20095;-77
2023/08/24 03:36:03;;;;;;;0.10;0.10;;;16.50;99.90;;;;;;5051718;28;20098;-78
2023/08/24 03:38:29;;;;;;;0.13;0.13;;;16.60;99.90;;;;;;5052342;28;20141;-78
2023/08/24 03:41:05;;;;;;;8.52;0.55;;;16.50;99.90;;;;;;5057507;28;20167;-77
2023/08/24 03:43:35;;;;;;;0.20;0.20;;;16.50;99.90;;;;;;5049404;28;20615;-78
2023/08/24 03:46:01;;;;;;;0.10;0.10;;;16.50;99.90;;;;;;5051601;28;20145;-77
2023/08/24 03:48:27;;;;;;;0.20;0.20;;;16.50;99.90;;;;;;5069138;28;20043;-77
2023/08/24 03:50:59;;;;;;;0.20;0.20;;;16.50;99.90;;;;;;5052388;28;20040;-77
2023/08/24 03:53:25;;;;;;;0.10;0.10;;;16.50;99.90;;;;;;5053812;28;20040;-77
2023/08/24 03:55:52;;;;;;;0.20;0.20;;;16.50;99.90;;;;;;5067647;28;20044;-77
2023/08/24 03:58:18;;;;;;;0.20;0.20;;;16.50;99.90;;;;;;5050939;28;20044;-77
2023/08/24 04:00:47;;;;;;;0.10;0.10;;;16.50;99.90;;;;;;5069320;28;20499;-78
2023/08/24 04:03:13;;;;;;;0.10;0.10;;;16.50;99.90;;;;;;5050919;28;20045;-77
2023/08/24 04:05:39;;;;;;;0.20;0.20;;;16.50;99.90;;;;;;5048783;28;20037;-76
2023/08/24 04:08:05;;;;;;;0.10;0.10;;;16.50;99.90;;;;;;5053115;28;20462;-77
2023/08/24 04:10:31;;;;;;;0.10;0.10;;;16.50;99.90;;;;;;5049817;28;20098;-77
2023/08/24 04:12:57;;;;;;;28.15;1.08;;;16.60;99.90;;;;;;5061137;28;20037;-77
2023/08/24 04:15:22;;;;;;;0.15;0.15;;;16.60;99.90;;;;;;5050777;28;20460;-77
2023/08/24 04:17:49;;;;;;;0.20;0.20;;;16.60;99.90;;;;;;5054230;28;20113;-77
2023/08/24 04:20:15;;;;;;;0.20;0.20;;;16.60;99.90;;;;;;5051524;28;20048;-77
2023/08/24 04:22:42;;;;;;;0.20;0.20;;;16.60;99.90;;;;;;5070371;28;20086;-77
2023/08/24 04:25:08;;;;;;;0.13;0.13;;;16.60;99.90;;;;;;5052038;28;20045;-77
2023/08/24 04:27:34;;;;;;;0.13;0.13;;;16.60;99.90;;;;;;5050213;28;20056;-76
2023/08/24 04:30:03;;;;;;;0.10;0.10;;;16.60;99.90;;;;;;5071174;28;20045;-76
2023/08/24 04:32:29;;;;;;;0.10;0.10;;;16.60;99.90;;;;;;5053209;28;20037;-76
2023/08/24 04:34:54;;;;;;;0.20;0.20;;;16.60;99.90;;;;;;5048835;28;20519;-76
2023/08/24 04:37:20;;;;;;;0.10;0.10;;;16.60;99.90;;;;;;5041319;28;20047;-76
2023/08/24 04:39:46;;;;;;;0.15;0.15;;;16.60;99.90;;;;;;5052525;28;20052;-76
2023/08/24 04:42:12;;;;;;;0.10;0.10;;;16.60;99.90;;;;;;5070883;28;20074;-76
2023/08/24 04:44:37;;;;;;;0.17;0.17;;;16.50;99.90;;;;;;5053576;28;20404;-76
2023/08/24 04:47:03;;;;;;;0.10;0.10;;;16.50;99.90;;;;;;5051969;28;20051;-76
2023/08/24 04:49:32;;;;;;;0.20;0.20;;;16.50;99.90;;;;;;5053051;28;20044;-76
2023/08/24 04:51:57;;;;;;;0.20;0.20;;;16.50;99.90;;;;;;5053290;28;20395;-76
2023/08/24 04:54:23;;;;;;;0.20;0.20;;;16.50;99.90;;;;;;5051297;28;20041;-76
2023/08/24 04:56:49;;;;;;;0.10;0.10;;;16.50;99.90;;;;;;5051272;28;20057;-76
2023/08/24 04:59:14;;;;;;;0.20;0.20;;;16.50;99.90;;;;;;5063572;28;20123;-76
2023/08/24 05:01:40;;;;;;;0.20;0.20;;;16.50;99.90;;;;;;5047137;28;20487;-76
2023/08/24 05:04:06;;;;;;;0.20;0.20;;;16.50;99.90;;;;;;5066255;28;20428;-77
2023/08/24 05:06:31;;;;;;;0.20;0.20;;;16.50;99.90;;;;;;5051095;28;20043;-76
2023/08/24 05:08:57;;;;;;;0.10;0.10;;;16.50;99.90;;;;;;5050742;28;20036;-76
2023/08/24 05:11:25;;;;;;;0.20;0.20;;;16.60;99.90;;;;;;5050875;28;20039;-76
2023/08/24 05:13:51;;;;;;;0.10;0.10;;;16.50;99.90;;;;;;5051809;28;20048;-76
2023/08/24 05:16:17;;;;;;;0.10;0.10;;;16.50;99.90;;;;;;5067333;28;20044;-77
2023/08/24 05:18:42;;;;;;;0.20;0.20;;;16.50;99.90;;;;;;5066101;28;20131;-76
2023/08/24 05:21:08;;;;;;;0.10;0.10;;;16.50;99.90;;;;;;5046755;28;20102;-76
2023/08/24 05:23:35;;;;;;;0.20;0.20;;;16.50;99.90;;;;;;5068855;28;20051;-76
2023/08/24 05:26:02;;;;;;;0.10;0.10;;;16.50;99.90;;;;;;5050602;28;20484;-76
2023/08/24 05:28:29;;;;;;;0.20;0.20;;;16.50;99.90;;;;;;5068157;28;20838;-76
2023/08/24 05:30:55;;;;;;;0.10;0.10;;;16.50;99.90;;;;;;5048055;28;20053;-76
2023/08/24 05:33:22;;;;;;;0.20;0.20;;;16.50;99.90;;;;;;5048655;28;20037;-76
2023/08/24 05:35:49;;;;;;;0.10;0.10;;;16.50;99.90;;;;;;5047492;28;20431;-76
2023/08/24 05:38:15;;;;;;;0.15;0.15;;;16.50;99.90;;;;;;5051841;28;20045;-77
2023/08/24 05:40:42;;;;;;;0.15;0.15;;;16.60;99.90;;;;;;5052095;28;20048;-76
2023/08/24 05:43:08;;;;;;;0.15;0.15;;;16.60;99.90;;;;;;5069231;28;20157;-77
2023/08/24 05:45:34;;;;;;;0.10;0.10;;;16.60;99.90;;;;;;5048776;28;20056;-77
2023/08/24 05:48:00;;;;;;;0.10;0.10;;;16.60;99.90;;;;;;5048873;28;20097;-77
2023/08/24 05:50:25;;;;;;;0.20;0.20;;;16.60;99.90;;;;;;5048343;28;20044;-76
2023/08/24 05:52:51;;;;;;;0.15;0.15;;;16.70;99.90;;;;;;5075029;28;20108;-76
2023/08/24 05:55:18;;;;;;;0.10;0.10;;;16.70;99.90;;;;;;5044525;28;20049;-76
2023/08/24 05:57:43;;;;;;;0.20;0.20;;;16.80;99.90;;;;;;5062908;28;20094;-76
2023/08/24 06:00:09;;;;;;;0.10;0.10;;;16.80;99.90;;;;;;5049363;28;20115;-76
2023/08/24 06:02:36;;;;;;;0.10;0.10;;;16.80;99.90;;;;;;5049675;28;20045;-76
2023/08/24 06:05:02;;;;;;;0.20;0.20;;;16.80;99.90;;;;;;5065600;28;20090;-77
2023/08/24 06:07:29;;;;;;;0.10;0.10;;;16.80;99.90;;;;;;5064694;28;20041;-76
2023/08/24 06:09:56;;;;;;;0.20;0.20;;;16.90;99.90;;;;;;5045602;28;20055;-77
2023/08/24 06:12:22;;;;;;;0.20;0.20;;;16.90;99.90;;;;;;5047023;28;20040;-76
2023/08/24 06:14:48;;;;;;;0.10;0.10;;;16.90;99.90;;;;;;5069202;28;20040;-76
2023/08/24 06:17:13;;;;;;;0.10;0.10;;;17.00;99.90;;;;;;5069375;28;20045;-77
2023/08/24 06:19:39;;;;;;;0.15;0.15;;;17.10;99.90;;;;;;5046306;28;20052;-76
2023/08/24 06:22:05;;;;;;;0.20;0.20;;;17.10;99.90;;;;;;5066394;28;20067;-76
2023/08/24 06:24:31;;;;;;;0.20;0.20;;;17.20;99.90;;;;;;5046460;28;20080;-76
2023/08/24 06:26:57;;;;;;;0.10;0.10;;;17.20;99.90;;;;;;5060348;28;20072;-76
2023/08/24 06:29:22;;;;;;;0.10;0.10;;;17.30;99.90;;;;;;5068559;28;20037;-76
2023/08/24 06:31:48;;;;;;;0.17;0.17;;;17.30;99.90;;;;;;5047072;28;20041;-76
2023/08/24 06:34:14;;;;;;;0.17;0.17;;;17.40;99.90;;;;;;5044082;28;20480;-75
2023/08/24 06:36:39;;;;;;;0.10;0.10;;;17.40;99.90;;;;;;5046252;28;20043;-76
2023/08/24 06:39:05;;;;;;;0.20;0.20;;;17.50;99.90;;;;;;5058055;28;20500;-76
2023/08/24 06:41:35;;;;;;;0.20;0.20;;;17.50;99.90;;;;;;5068095;28;20044;-76
2023/08/24 06:44:01;;;;;;;0.20;0.20;;;17.50;99.90;;;;;;5061362;28;20044;-76
2023/08/24 06:46:27;;;;;;;0.10;0.10;;;17.60;99.90;;;;;;5040160;28;20115;-76
2023/08/24 06:48:53;;;;;;;0.10;0.10;;;17.60;99.90;;;;;;5048586;28;20048;-77
2023/08/24 06:51:19;;;;;;;0.10;0.10;;;17.60;99.90;;;;;;5048055;28;20040;-76
2023/08/24 06:53:46;;;;;;;0.20;0.20;;;17.70;99.90;;;;;;5056486;28;20098;-76
2023/08/24 06:56:14;;;;;;;0.10;0.10;;;17.70;99.90;;;;;;5067625;28;20043;-76
2023/08/24 06:58:40;;;;;;;0.15;0.15;;;17.70;99.90;;;;;;5068396;28;20089;-76
2023/08/24 07:01:07;;;;;;;0.17;0.17;;;17.80;99.90;;;;;;5064525;28;20570;-76
2023/08/24 07:03:33;;;;;;;0.10;0.10;;;17.90;99.90;;;;;;5046587;28;20048;-77
2023/08/24 07:05:59;;;;;;;0.20;0.20;;;17.90;99.90;;;;;;5046450;28;20083;-76
2023/08/24 07:08:25;;;;;;;0.10;0.10;;;18.00;99.90;;;;;;5050370;28;20037;-76
2023/08/24 07:10:50;;;;;;;0.20;0.20;;;18.00;99.90;;;;;;5047176;28;20052;-76
2023/08/24 07:13:16;;;;;;;0.20;0.20;;;18.10;99.90;;;;;;5044792;28;20047;-75
2023/08/24 07:15:42;;;;;;;0.10;0.10;;;18.10;99.90;;;;;;5043668;28;20060;-75
2023/08/24 07:18:08;;;;;;;0.20;0.20;;;18.20;99.90;;;;;;5036333;28;20075;-77
2023/08/24 07:20:35;;;;;;;0.20;0.20;;;18.20;99.90;;;;;;5046193;28;20044;-77
2023/08/24 07:23:01;;;;;;;0.20;0.20;;;18.30;99.90;;;;;;5049498;28;20543;-77
2023/08/24 07:25:29;;;;;;;0.10;0.10;;;18.30;99.90;;;;;;5052079;28;20079;-77
2023/08/24 07:27:59;;;;;;;0.20;0.20;;;18.40;99.90;;;;;;5069417;28;20044;-77
2023/08/24 07:30:28;;;;;;;0.20;0.20;;;18.40;99.90;;;;;;5033667;28;20167;-77
2023/08/24 07:32:54;;;;;;;0.20;0.20;;;18.50;99.90;;;;;;5047016;28;20088;-77
2023/08/24 07:35:20;;;;;;;0.20;0.20;;;18.50;99.90;;;;;;5030579;28;20080;-77
2023/08/24 07:37:49;;;;;;;0.10;0.10;;;18.50;99.90;;;;;;5049129;28;20037;-76
2023/08/24 07:40:15;;;;;;;0.20;0.20;;;18.60;99.90;;;;;;5054038;28;20044;-77
2023/08/24 07:42:50;;;;;;;0.17;0.17;;;18.60;99.90;;;;;;5046573;28;20050;-77
2023/08/24 07:45:16;;;;;;;0.20;0.20;;;18.70;99.90;;;;;;5058532;28;20128;-76
2023/08/24 07:47:43;;;;;;;0.20;0.20;;;18.80;99.90;;;;;;5063599;28;20439;-77
2023/08/24 07:50:10;;;;;;;0.10;0.10;;;18.80;99.90;;;;;;5046065;28;20036;-77
2023/08/24 07:52:38;;;;;;;0.10;0.10;;;18.90;99.90;;;;;;5067091;28;20045;-77
2023/08/24 07:55:06;;;;;;;0.20;0.20;;;18.80;99.90;;;;;;5040669;28;20341;-77
2023/08/24 07:57:33;;;;;;;0.20;0.20;;;19.00;99.90;;;;;;5047643;28;20075;-77
2023/08/24 07:59:59;;;;;;;0.20;0.20;;;19.00;99.90;;;;;;5051632;28;20048;-77
2023/08/24 08:02:25;;;;;;;0.13;0.13;;;19.10;99.90;;;;;;5054008;28;20044;-77
2023/08/24 08:04:51;;;;;;;0.20;0.20;;;19.20;99.90;;;;;;5067286;28;20183;-77
2023/08/24 08:07:16;;;;;;;0.20;0.20;;;19.30;99.90;;;;;;5054646;28;20078;-77
2023/08/24 08:09:42;;;;;;;0.20;0.20;;;19.30;99.90;;;;;;5054856;28;20071;-77
2023/08/24 08:12:08;;;;;;;0.10;0.10;;;19.40;99.90;;;;;;5052734;28;20048;-77
2023/08/24 08:14:34;;;;;;;0.20;0.20;;;19.40;99.90;;;;;;5054917;28;20488;-77
2023/08/24 08:16:59;;;;;;;0.20;0.20;;;19.50;99.90;;;;;;5054329;28;20079;-77
2023/08/24 08:19:27;;;;;;;0.20;0.20;;;19.60;99.90;;;;;;5053929;28;20488;-77
2023/08/24 08:21:53;;;;;;;0.20;0.20;;;19.60;99.90;;;;;;5066828;28;20575;-85
2023/08/24 08:24:19;;;;;;;0.20;0.20;;;19.70;99.90;;;;;;5069709;28;20123;-77
2023/08/24 08:26:44;;;;;;;0.20;0.20;;;19.70;99.90;;;;;;5050344;28;20048;-78
2023/08/24 08:29:10;;;;;;;0.30;0.30;;;19.80;99.90;;;;;;5039018;28;20052;-77
2023/08/24 08:31:37;;;;;;;0.20;0.20;;;19.90;99.90;;;;;;5068110;28;20040;-77
2023/08/24 08:34:04;;;;;;;0.10;0.10;;;19.90;99.90;;;;;;5053823;28;20101;-77
2023/08/24 08:36:32;;;;;;;0.20;0.20;;;20.00;99.90;;;;;;5067727;28;20041;-78
2023/08/24 08:38:58;;;;;;;0.20;0.20;;;20.10;99.90;;;;;;5072435;28;20174;-77
2023/08/24 08:41:30;;;;;;;0.20;0.20;;;20.20;99.90;;;;;;5073815;28;20044;-77
2023/08/24 08:43:56;;;;;;;0.20;0.20;;;20.30;99.90;;;;;;5052608;28;20053;-77
2023/08/24 08:46:22;;;;;;;0.20;0.20;;;20.30;99.90;;;;;;5048333;28;20044;-77
2023/08/24 08:48:50;;;;;;;0.20;0.20;;;20.40;99.90;;;;;;5077595;28;20067;-77
2023/08/24 08:51:17;;;;;;;0.20;0.20;;;20.50;99.90;;;;;;5058299;28;20045;-77
2023/08/24 08:53:43;;;;;;;0.20;0.20;;;20.50;99.90;;;;;;5050150;28;20040;-77
2023/08/24 08:56:09;;;;;;;0.30;0.30;;;20.70;99.90;;;;;;5067926;28;20098;-77
2023/08/24 08:58:36;;;;;;;0.20;0.20;;;20.70;99.90;;;;;;5069305;28;20161;-77
2023/08/24 09:01:05;;;;;;;0.20;0.20;;;20.80;99.90;;;;;;5067773;28;20049;-77
2023/08/24 09:03:32;;;;;;;0.20;0.20;;;20.90;99.90;;;;;;5051397;28;20044;-77
2023/08/24 09:05:58;;;;;;;0.20;0.20;;;21.00;99.90;;;;;;5041937;28;20035;-77
2023/08/24 09:08:27;;;;;;;0.20;0.20;;;21.10;99.90;;;;;;5052285;28;20044;-77
2023/08/24 09:10:54;;;;;;;0.20;0.20;;;21.10;99.90;;;;;;5070932;28;20045;-77
2023/08/24 09:13:20;;;;;;;0.20;0.20;;;21.10;99.90;;;;;;5050267;28;20049;-77
2023/08/24 09:15:46;;;;;;;0.20;0.20;;;21.20;99.90;;;;;;5034420;28;20049;-77
2023/08/24 09:18:12;;;;;;;0.20;0.20;;;21.20;99.90;;;;;;5067099;28;20492;-78
2023/08/24 09:20:38;;;;;;;0.20;0.20;;;21.30;99.90;;;;;;5053514;28;20407;-78
2023/08/24 09:23:04;;;;;;;0.20;0.20;;;21.30;99.90;;;;;;5052642;28;20040;-78
2023/08/24 09:25:29;;;;;;;0.15;0.15;;;21.50;99.90;;;;;;5034199;28;20103;-77
2023/08/24 09:28:07;;;;;;;0.20;0.20;;;21.60;99.90;;;;;;5050378;28;20124;-77
2023/08/24 09:30:37;;;;;;;0.20;0.20;;;21.70;99.90;;;;;;5033708;28;20539;-77
2023/08/24 09:33:10;;;;;;;0.20;0.20;;;21.80;99.90;;;;;;5049525;28;20045;-77
2023/08/24 09:35:37;;;;;;;0.10;0.10;;;21.80;99.90;;;;;;5043071;28;20052;-77
2023/08/24 09:38:19;;;;;;;0.20;0.20;;;22.00;99.90;;;;;;5036812;28;20051;-77
2023/08/24 09:40:50;;;;;;;0.20;0.20;;;22.00;99.90;;;;;;5055920;28;20102;-77
2023/08/24 09:43:16;;;;;;;0.20;0.20;;;22.10;99.90;;;;;;5048322;28;20047;-77
2023/08/24 09:45:53;;;;;;;0.20;0.20;;;22.10;99.90;;;;;;5043504;28;20044;-77
2023/08/24 09:48:20;;;;;;;0.20;0.20;;;22.10;99.90;;;;;;5058250;28;20052;-78
2023/08/24 09:50:47;;;;;;;0.10;0.10;;;22.20;99.90;;;;;;5042138;28;20074;-77
2023/08/24 09:53:23;;;;;;;0.20;0.20;;;22.10;99.90;;;;;;5036270;28;20043;-77
2023/08/24 09:55:59;;;;;;;0.20;0.20;;;22.20;99.90;;;;;;5053515;28;20052;-78
2023/08/24 09:58:26;;;;;;;0.20;0.20;;;22.20;99.90;;;;;;5053565;28;20044;-77
2023/08/24 10:00:52;;;;;;;0.20;0.20;;;22.20;99.90;;;;;;5046883;28;20036;-77
2023/08/24 10:03:27;;;;;;;0.20;0.20;;;22.20;99.90;;;;;;5065354;28;20044;-77
2023/08/24 10:05:57;;;;;;;0.20;0.20;;;22.20;99.90;;;;;;5045113;28;20044;-77
2023/08/24 10:08:36;;;;;;;0.20;0.20;;;22.20;99.90;;;;;;5050470;28;20395;-77
2023/08/24 10:11:02;;;;;;;0.20;0.20;;;22.20;99.90;;;;;;5050946;28;20425;-78
2023/08/24 10:13:43;;;;;;;0.20;0.20;;;22.30;99.90;;;;;;5052534;28;20044;-77
2023/08/24 10:16:12;;;;;;;0.20;0.20;;;22.20;99.90;;;;;;5053616;28;20068;-78
2023/08/24 10:18:40;;;;;;;0.20;0.20;;;22.20;99.90;;;;;;5056700;28;20044;-77
2023/08/24 10:21:08;;;;;;;0.20;0.20;;;22.30;99.90;;;;;;5039898;28;20049;-77
2023/08/24 10:23:35;;;;;;;0.20;0.20;;;22.20;99.90;;;;;;5042212;28;20041;-77
2023/08/24 10:26:07;;;;;;;0.20;0.20;;;22.20;99.90;;;;;;5042224;28;20051;-77
2023/08/24 10:28:33;;;;;;;0.20;0.20;;;22.30;99.90;;;;;;5058805;28;20049;-77
2023/08/24 10:31:00;;;;;;;0.20;0.20;;;22.30;99.90;;;;;;5058500;28;20067;-77
2023/08/24 10:33:26;;;;;;;0.20;0.20;;;22.30;99.90;;;;;;5040724;28;20040;-77
2023/08/24 10:35:53;;;;;;;0.20;0.20;;;22.30;99.90;;;;;;5041407;28;20052;-77
2023/08/24 10:38:26;;;;;;;0.20;0.20;;;22.30;99.90;;;;;;5041990;28;20188;-77
2023/08/24 10:40:53;;;;;;;0.20;0.20;;;22.20;99.90;;;;;;5039684;28;20045;-78
2023/08/24 10:43:20;;;;;;;0.20;0.20;;;22.20;99.90;;;;;;5040052;28;20130;-77
2023/08/24 10:45:59;;;;;;;0.20;0.20;;;22.20;99.90;;;;;;5057846;28;20063;-77
2023/08/24 10:48:45;;;;;;;0.20;0.20;;;22.20;99.90;;;;;;5058801;28;20052;-77
2023/08/24 10:51:14;;;;;;;0.20;0.20;;;22.20;99.90;;;;;;5055825;28;20052;-77
2023/08/24 10:53:41;;;;;;;0.20;0.20;;;22.20;99.90;;;;;;5040229;28;20071;-79
2023/08/24 10:56:17;;;;;;;0.20;0.20;;;22.10;99.90;;;;;;5043031;28;20548;-78
2023/08/24 10:58:45;;;;;;;0.20;0.20;;;22.10;99.90;;;;;;5041896;28;20064;-77
2023/08/24 11:01:23;;;;;;;0.20;0.20;;;22.10;99.90;;;;;;5067267;28;20055;-77
2023/08/24 11:03:59;;;;;;;0.20;0.20;;;22.10;99.90;;;;;;5051361;28;20052;-77
2023/08/24 11:06:28;;;;;;;0.20;0.20;;;22.10;99.90;;;;;;5044456;28;20053;-76
2023/08/24 11:09:13;;;;;;;0.20;0.20;;;22.00;99.90;;;;;;5049907;28;20051;-76
2023/08/24 11:11:39;;;;;;;0.20;0.20;;;22.10;99.90;;;;;;5050342;28;20087;-76
2023/08/24 11:14:29;;;;;;;0.20;0.20;;;22.10;99.90;;;;;;5034984;28;20411;-77
2023/08/24 11:17:19;;;;;;;0.20;0.20;;;22.10;99.90;;;;;;5051222;28;20135;-77
2023/08/24 11:19:50;;;;;;;0.20;0.20;;;22.10;99.90;;;;;;5036496;28;20063;-76
2023/08/24 11:22:17;;;;;;;0.20;0.20;;;22.10;99.90;;;;;;5063993;28;20036;-77
2023/08/24 11:24:43;;;;;;;0.13;0.13;;;22.10;99.90;;;;;;5042749;28;20040;-77
2023/08/24 11:27:09;;;;;;;0.20;0.20;;;22.20;99.90;;;;;;5066122;28;20523;-77
2023/08/24 11:29:35;;;;;;;0.20;0.20;;;22.20;99.90;;;;;;5042510;28;20053;-77
2023/08/24 11:32:01;;;;;;;0.20;0.20;;;22.20;99.90;;;;;;5047101;28;20047;-78
2023/08/24 11:34:27;;;;;;;0.20;0.20;;;22.20;99.90;;;;;;5064983;28;20373;-77
2023/08/24 11:36:53;;;;;;;0.20;0.20;;;22.20;99.90;;;;;;5055447;28;20051;-77
2023/08/24 11:39:22;;;;;;;0.20;0.20;;;22.20;99.90;;;;;;5052399;28;20448;-77
2023/08/24 11:42:02;;;;;;;0.20;0.20;;;22.30;99.90;;;;;;5072780;28;20041;-79
2023/08/24 11:44:47;;;;;;;0.20;0.20;;;22.30;99.90;;;;;;5063571;28;20142;-78
2023/08/24 11:47:13;;;;;;;0.20;0.20;;;22.30;99.90;;;;;;5048321;28;20051;-78
2023/08/24 11:49:39;;;;;;;0.20;0.20;;;22.30;99.90;;;;;;5048935;28;20401;-77
2023/08/24 11:52:05;;;;;;;0.10;0.10;;;22.40;99.90;;;;;;5048469;28;20454;-77
2023/08/24 11:54:38;;;;;;;0.10;0.10;;;22.50;99.90;;;;;;5047646;28;20055;-77
2023/08/24 11:57:06;;;;;;;0.20;0.20;;;22.50;99.90;;;;;;5034859;28;20049;-77
2023/08/24 11:59:32;;;;;;;0.20;0.20;;;22.60;99.90;;;;;;5073151;28;20072;-77
2023/08/24 12:01:58;;;;;;;0.20;0.20;;;22.70;99.90;;;;;;5051113;28;20068;-77
2023/08/24 12:04:24;;;;;;;0.20;0.20;;;22.70;99.90;;;;;;5067850;28;20040;-77
2023/08/24 12:06:50;;;;;;;0.10;0.10;;;22.70;99.90;;;;;;5053629;28;20040;-77
2023/08/24 12:09:16;;;;;;;0.20;0.20;;;22.80;99.90;;;;;;5052076;28;20072;-77
2023/08/24 12:11:41;;;;;;;0.13;0.13;;;22.80;99.90;;;;;;5053055;28;20048;-78
2023/08/24 12:14:09;;;;;;;0.20;0.20;;;22.90;99.90;;;;;;5048541;28;20571;-77
2023/08/24 12:16:35;;;;;;;0.20;0.20;;;22.90;99.90;;;;;;5036194;28;20033;-78
2023/08/24 12:19:04;;;;;;;0.15;0.15;;;22.90;99.90;;;;;;5052302;28;20103;-78
2023/08/24 12:21:30;;;;;;;0.20;0.20;;;22.90;99.90;;;;;;5071700;28;20048;-77
2023/08/24 12:23:58;;;;;;;0.20;0.20;;;22.90;99.90;;;;;;5065513;28;20405;-78
2023/08/24 12:26:25;;;;;;;0.20;0.20;;;22.90;99.90;;;;;;5045948;28;20073;-77
2023/08/24 12:28:54;;;;;;;0.20;0.20;;;22.90;99.90;;;;;;5068813;28;20119;-77
2023/08/24 12:31:25;;;;;;;0.20;0.20;;;22.90;99.90;;;;;;5055483;28;20122;-77
2023/08/24 12:34:05;;;;;;;0.20;0.20;;;22.90;99.90;;;;;;5048489;28;20052;-77
2023/08/24 12:36:36;;;;;;;0.20;0.20;;;22.90;99.90;;;;;;5054252;28;20044;-77
2023/08/24 12:39:04;;;;;;;0.20;0.20;;;22.90;99.90;;;;;;5052011;28;20040;-77
2023/08/24 12:41:30;;;;;;;0.10;0.10;;;22.90;99.90;;;;;;5072418;28;20048;-77
2023/08/24 12:43:56;;;;;;;0.20;0.20;;;22.90;99.90;;;;;;5047943;28;20480;-77
2023/08/24 12:46:21;;;;;;;0.20;0.20;;;22.90;99.90;;;;;;5070191;28;20399;-77
2023/08/24 12:48:47;;;;;;;0.20;0.20;;;22.90;99.90;;;;;;5053331;28;20063;-77
2023/08/24 12:51:13;;;;;;;0.20;0.20;;;22.90;99.90;;;;;;5056190;28;20620;-77